createdAt,value
2019-03-12T00:02:18.198Z,3.97
2019-03-12T00:04:49.269Z,3.95
2019-03-12T00:07:20.111Z,3.94
2019-03-12T00:09:53.625Z,4.02
2019-03-12T00:12:23.117Z,3.98
2019-03-12T00:14:53.546Z,3.96
2019-03-12T00:17:24.232Z,4.01
2019-03-12T00:19:54.832Z,4.01
2019-03-12T00:22:25.562Z,4.07
2019-03-12T00:24:56.297Z,4.03
2019-03-12T00:27:26.869Z,4.12
2019-03-12T00:29:57.673Z,4.06
2019-03-12T00:32:28.298Z,4.02
2019-03-12T00:34:59.023Z,3.98
2019-03-12T00:37:29.489Z,4.04
2019-03-12T00:39:59.947Z,4.05
2019-03-12T00:42:30.507Z,4.03
2019-03-12T00:45:00.976Z,4.06
2019-03-12T00:47:31.508Z,4.12
2019-03-12T00:50:02.041Z,4.02
2019-03-12T00:52:32.550Z,4.03
2019-03-12T00:55:03.694Z,4.01
2019-03-12T00:57:34.219Z,3.95
2019-03-12T01:00:05.626Z,3.95
2019-03-12T01:02:36.145Z,3.93
2019-03-12T01:05:07.078Z,3.98
2019-03-12T01:07:37.544Z,3.90
2019-03-12T01:10:10.166Z,3.88
2019-03-12T01:12:40.617Z,3.86
2019-03-12T01:15:11.641Z,3.95
2019-03-12T01:17:42.413Z,3.87
2019-03-12T01:20:13.835Z,3.83
2019-03-12T01:22:44.633Z,3.85
2019-03-12T01:25:15.368Z,3.91
2019-03-12T01:27:45.875Z,3.93
2019-03-12T01:30:17.553Z,3.93
2019-03-12T01:32:48.308Z,3.99
2019-03-12T01:35:18.782Z,3.93
2019-03-12T01:37:49.276Z,4.01
2019-03-12T01:40:19.735Z,4.02
2019-03-12T01:42:52.498Z,4.07
2019-03-12T01:45:22.396Z,4.10
2019-03-12T01:47:53.154Z,4.15
2019-03-12T01:50:23.612Z,4.18
2019-03-12T01:52:54.085Z,4.13
2019-03-12T01:55:24.563Z,4.13
2019-03-12T01:57:55.013Z,4.08
2019-03-12T02:00:26.062Z,4.08
2019-03-12T02:02:56.606Z,4.11
2019-03-12T02:05:27.155Z,4.09
2019-03-12T02:07:57.793Z,4.13
2019-03-12T02:10:28.263Z,4.18
2019-03-12T02:12:58.970Z,4.05
2019-03-12T02:15:29.466Z,4.08
2019-03-12T02:18:00.482Z,4.02
2019-03-12T02:20:31.002Z,4.10
2019-03-12T02:23:01.452Z,4.12
2019-03-12T02:25:31.952Z,4.20
2019-03-12T02:28:02.447Z,4.21
2019-03-12T02:30:33.391Z,4.12
2019-03-12T02:33:03.877Z,4.13
2019-03-12T02:35:34.380Z,4.11
2019-03-12T02:38:04.847Z,4.13
2019-03-12T02:40:35.356Z,4.16
2019-03-12T02:43:06.039Z,4.13
2019-03-12T02:45:36.497Z,4.21
2019-03-12T02:48:06.998Z,4.18
2019-03-12T02:50:37.477Z,4.20
2019-03-12T02:53:08.091Z,4.21
2019-03-12T02:55:39.007Z,4.22
2019-03-12T02:58:09.491Z,4.16
2019-03-12T03:00:40.245Z,4.13
2019-03-12T03:03:10.713Z,4.10
2019-03-12T03:06:03.420Z,4.11
2019-03-12T03:08:34.153Z,4.08
2019-03-12T03:11:04.659Z,4.11
2019-03-12T03:13:35.093Z,4.07
2019-03-12T03:16:06.106Z,4.11
2019-03-12T03:18:36.563Z,4.10
2019-03-12T03:21:07.111Z,4.01
2019-03-12T03:23:37.690Z,4.08
2019-03-12T03:26:08.169Z,4.03
2019-03-12T03:28:38.648Z,4.08
2019-03-12T03:31:09.140Z,4.02
2019-03-12T03:33:39.539Z,4.02
2019-03-12T03:36:09.995Z,4.00
2019-03-12T03:38:40.462Z,3.98
2019-03-12T03:41:11.215Z,4.05
2019-03-12T03:43:41.661Z,3.98
2019-03-12T03:46:12.212Z,3.98
2019-03-12T03:48:42.687Z,3.96
2019-03-12T03:51:13.173Z,3.94
2019-03-12T03:53:43.677Z,3.93
2019-03-12T03:56:14.228Z,3.85
2019-03-12T03:58:44.710Z,3.90
2019-03-12T04:01:15.536Z,3.93
2019-03-12T04:03:45.970Z,3.98
2019-03-12T04:06:16.473Z,3.90
2019-03-12T04:08:47.007Z,3.82
2019-03-12T04:11:17.711Z,3.79
2019-03-12T04:13:48.174Z,3.79
2019-03-12T04:16:18.711Z,3.72
2019-03-12T04:18:49.342Z,3.73
2019-03-12T04:21:19.843Z,3.72
2019-03-12T04:23:50.304Z,3.67
2019-03-12T04:26:21.054Z,3.69
2019-03-12T04:28:51.689Z,3.71
2019-03-12T04:31:22.252Z,3.69
2019-03-12T04:34:41.288Z,3.70
2019-03-12T04:37:12.188Z,3.73
2019-03-12T04:39:42.673Z,3.76
2019-03-12T04:42:13.422Z,3.77
2019-03-12T04:44:43.901Z,3.75
2019-03-12T04:47:14.383Z,3.72
2019-03-12T04:49:45.112Z,3.74
2019-03-12T04:52:15.616Z,3.80
2019-03-12T04:54:46.356Z,3.85
2019-03-12T04:57:16.811Z,3.85
2019-03-12T04:59:47.603Z,3.83
2019-03-12T05:02:18.085Z,3.90
2019-03-12T05:04:48.541Z,3.89
2019-03-12T05:07:19.404Z,3.89
2019-03-12T05:09:49.855Z,3.89
2019-03-12T05:12:20.326Z,3.91
2019-03-12T05:14:50.866Z,3.96
2019-03-12T05:17:27.737Z,3.96
2019-03-12T05:19:58.229Z,4.05
2019-03-12T05:22:28.614Z,4.06
2019-03-12T05:24:59.079Z,4.09
2019-03-12T05:27:29.940Z,4.12
2019-03-12T05:30:00.678Z,4.15
2019-03-12T05:32:31.205Z,4.17
2019-03-12T05:35:01.732Z,4.19
2019-03-12T05:37:32.185Z,4.28
2019-03-12T05:40:02.929Z,4.25
2019-03-12T05:42:33.418Z,4.27
2019-03-12T05:45:04.195Z,4.30
2019-03-12T05:47:34.953Z,4.29
2019-03-12T05:50:05.598Z,4.34
2019-03-12T05:52:36.065Z,4.37
2019-03-12T05:55:07.444Z,4.45
2019-03-12T05:57:37.925Z,4.41
2019-03-12T06:00:10.457Z,4.50
2019-03-12T06:02:40.985Z,4.45
2019-03-12T06:05:11.739Z,4.55
2019-03-12T06:07:42.486Z,4.62
2019-03-12T06:10:13.534Z,4.60
2019-03-12T06:12:44.067Z,4.58
2019-03-12T06:15:17.587Z,4.64
2019-03-12T06:17:48.341Z,4.60
2019-03-12T06:20:19.368Z,4.67
2019-03-12T06:22:50.298Z,4.73
2019-03-12T06:25:20.863Z,4.70
2019-03-12T06:27:51.446Z,4.81
2019-03-12T06:30:22.140Z,4.78
2019-03-12T06:33:00.066Z,4.81
2019-03-12T06:35:58.789Z,4.89
2019-03-12T06:38:46.659Z,4.98
2019-03-12T06:41:40.621Z,4.93
2019-03-12T06:44:28.478Z,4.97
2019-03-12T06:47:12.341Z,5.07
2019-03-12T06:50:02.838Z,5.06
2019-03-12T06:52:51.110Z,5.15
2019-03-12T06:55:49.300Z,5.24
2019-03-12T06:58:37.125Z,5.17
2019-03-12T07:01:32.126Z,5.26
2019-03-12T07:04:10.740Z,5.21
2019-03-12T07:06:54.484Z,5.29
2019-03-12T07:09:35.369Z,5.39
2019-03-12T07:12:14.285Z,5.48
2019-03-12T07:15:02.471Z,5.48
2019-03-12T07:17:48.958Z,5.47
2019-03-12T07:20:26.745Z,5.55
2019-03-12T07:23:16.356Z,5.62
2019-03-12T07:26:05.658Z,5.56
2019-03-12T07:28:50.673Z,5.62
2019-03-12T07:31:45.219Z,5.71
2019-03-12T07:34:40.313Z,5.92
2019-03-12T07:37:32.489Z,6.02
2019-03-12T07:40:22.236Z,6.02
2019-03-12T07:43:11.029Z,6.10
2019-03-12T07:46:00.370Z,6.20
2019-03-12T07:48:48.001Z,6.26
2019-03-12T07:51:42.159Z,6.23
2019-03-12T07:54:47.242Z,6.36
2019-03-12T07:57:33.868Z,6.38
2019-03-12T08:00:23.577Z,6.48
2019-03-12T08:03:11.317Z,6.35
2019-03-12T08:05:59.402Z,6.48
2019-03-12T08:08:47.196Z,6.52
2019-03-12T08:11:28.432Z,6.60
2019-03-12T08:14:32.959Z,6.65
2019-03-12T08:17:31.197Z,6.67
2019-03-12T08:20:10.809Z,6.71
2019-03-12T08:22:46.263Z,6.68
2019-03-12T08:25:38.704Z,6.77
2019-03-12T08:28:17.429Z,6.75
2019-03-12T08:31:16.252Z,6.96
2019-03-12T08:33:59.139Z,6.98
2019-03-12T08:36:48.691Z,7.18
2019-03-12T08:39:36.730Z,7.18
2019-03-12T08:42:32.046Z,7.33
2019-03-12T08:45:17.506Z,7.25
2019-03-12T08:48:05.227Z,7.49
2019-03-12T08:50:53.108Z,7.54
2019-03-12T08:53:40.984Z,7.50
2019-03-12T08:56:33.747Z,7.57
2019-03-12T08:59:25.907Z,7.57
2019-03-12T09:02:13.826Z,7.80
2019-03-12T09:05:02.767Z,7.80
2019-03-12T09:07:38.709Z,7.86
2019-03-12T09:10:31.391Z,8.02
2019-03-12T09:13:20.788Z,8.01
2019-03-12T09:16:06.180Z,7.85
2019-03-12T09:18:50.601Z,8.04
2019-03-12T09:21:42.271Z,8.03
2019-03-12T09:24:40.193Z,8.05
2019-03-12T09:27:29.621Z,8.10
2019-03-12T09:30:30.678Z,8.18
2019-03-12T09:33:10.567Z,8.18
2019-03-12T09:36:11.558Z,8.12
2019-03-12T09:38:53.133Z,8.29
2019-03-12T09:41:40.011Z,8.32
2019-03-12T09:44:32.233Z,8.26
2019-03-12T09:47:22.203Z,8.30
2019-03-12T09:49:57.264Z,8.23
2019-03-12T09:52:46.613Z,8.31
2019-03-12T09:55:38.718Z,8.28
2019-03-12T09:58:21.387Z,8.37
2019-03-12T10:00:58.328Z,8.28
2019-03-12T10:03:43.355Z,8.30
2019-03-12T10:06:31.432Z,8.43
2019-03-12T10:09:19.295Z,8.52
2019-03-12T10:12:00.338Z,8.56
2019-03-12T10:14:46.210Z,8.55
2019-03-12T10:17:34.559Z,8.82
2019-03-12T10:20:27.232Z,8.79
2019-03-12T10:23:04.116Z,8.73
2019-03-12T10:25:54.730Z,8.88
2019-03-12T10:28:46.941Z,8.99
2019-03-12T10:31:51.587Z,9.26
2019-03-12T10:34:53.188Z,9.49
2019-03-12T10:37:30.700Z,9.25
2019-03-12T10:40:23.733Z,9.45
2019-03-12T10:43:18.379Z,9.71
2019-03-12T10:46:08.043Z,9.72
2019-03-12T10:48:38.506Z,9.75
2019-03-12T10:51:09.020Z,9.83
2019-03-12T10:53:39.557Z,9.81
2019-03-12T10:56:10.042Z,9.68
2019-03-12T10:58:41.147Z,10.11
2019-03-12T11:01:11.730Z,9.99
2019-03-12T11:03:42.226Z,10.40
2019-03-12T11:06:12.998Z,10.36
2019-03-12T11:08:43.778Z,10.40
2019-03-12T11:11:14.388Z,10.34
2019-03-12T11:13:44.850Z,9.98
2019-03-12T11:16:15.368Z,10.04
2019-03-12T11:18:45.826Z,9.76
2019-03-12T11:21:16.252Z,9.71
2019-03-12T11:23:47.278Z,9.67
2019-03-12T11:26:17.654Z,9.62
2019-03-12T11:28:48.074Z,9.73
2019-03-12T11:31:18.791Z,9.58
2019-03-12T11:33:49.534Z,9.86
2019-03-12T11:36:20.292Z,9.87
2019-03-12T11:38:50.901Z,10.22
2019-03-12T11:41:21.588Z,10.16
2019-03-12T11:43:52.369Z,10.17
2019-03-12T11:46:23.425Z,10.12
2019-03-12T11:48:54.181Z,10.35
2019-03-12T11:51:24.917Z,10.40
2019-03-12T11:53:55.583Z,10.58
2019-03-12T11:56:26.685Z,10.43
2019-03-12T11:58:57.321Z,10.53
2019-03-12T12:01:28.188Z,10.79
2019-03-12T12:03:58.959Z,10.79
2019-03-12T12:06:29.902Z,10.62
2019-03-12T12:09:00.593Z,10.87
2019-03-12T12:11:31.153Z,11.06
2019-03-12T12:14:01.717Z,10.81
2019-03-12T12:16:32.664Z,10.69
2019-03-12T12:19:03.277Z,10.57
2019-03-12T12:21:34.096Z,10.48
2019-03-12T12:24:04.954Z,10.46
2019-03-12T12:26:35.562Z,10.42
2019-03-12T12:29:06.188Z,10.52
2019-03-12T12:31:36.851Z,10.65
2019-03-12T12:34:07.736Z,10.62
2019-03-12T12:36:38.448Z,10.58
2019-03-12T12:39:09.774Z,10.61
2019-03-12T12:41:40.362Z,10.86
2019-03-12T12:44:11.011Z,10.97
2019-03-12T12:46:41.779Z,10.97
2019-03-12T12:49:12.309Z,10.77
2019-03-12T12:51:42.844Z,10.97
2019-03-12T12:54:13.536Z,11.19
2019-03-12T12:56:44.150Z,10.70
2019-03-12T12:59:14.725Z,11.16
2019-03-12T13:01:45.303Z,11.12
2019-03-12T13:04:15.878Z,11.02
2019-03-12T13:06:46.518Z,10.89
2019-03-12T13:09:17.266Z,11.16
2019-03-12T13:11:48.057Z,10.88
2019-03-12T13:14:18.632Z,10.95
2019-03-12T13:16:49.505Z,10.90
2019-03-12T13:19:20.091Z,11.03
2019-03-12T13:21:50.674Z,10.99
2019-03-12T13:24:21.286Z,11.11
2019-03-12T13:26:51.886Z,11.39
2019-03-12T13:29:22.417Z,11.66
2019-03-12T13:31:53.085Z,11.40
2019-03-12T13:34:23.868Z,10.91
2019-03-12T13:36:54.316Z,10.91
2019-03-12T13:39:24.893Z,11.01
2019-03-12T13:41:55.409Z,10.67
2019-03-12T13:44:26.195Z,10.92
2019-03-12T13:46:56.831Z,10.77
2019-03-12T13:49:27.330Z,10.72
2019-03-12T13:51:57.877Z,10.85
2019-03-12T13:54:28.530Z,10.78
2019-03-12T13:56:58.987Z,11.00
2019-03-12T13:59:29.464Z,11.02
2019-03-12T14:02:00.269Z,10.83
2019-03-12T14:04:30.788Z,11.03
2019-03-12T14:07:01.556Z,10.92
2019-03-12T14:09:32.065Z,10.89
2019-03-12T14:12:02.946Z,10.82
2019-03-12T14:14:33.406Z,10.80
2019-03-12T14:17:04.189Z,10.81
2019-03-12T14:19:34.652Z,10.89
2019-03-12T14:22:08.957Z,10.94
2019-03-12T14:24:39.663Z,10.74
2019-03-12T14:27:10.128Z,10.74
2019-03-12T14:29:40.614Z,10.68
2019-03-12T14:32:12.243Z,10.78
2019-03-12T14:34:42.727Z,10.78
2019-03-12T14:37:13.242Z,10.80
2019-03-12T14:39:43.771Z,10.77
2019-03-12T14:42:14.494Z,10.76
2019-03-12T14:44:45.563Z,10.67
2019-03-12T14:47:16.030Z,10.73
2019-03-12T14:49:46.813Z,10.75
2019-03-12T14:52:34.818Z,10.86
2019-03-12T14:55:06.150Z,10.87
2019-03-12T14:57:36.609Z,10.74
2019-03-12T15:00:19.434Z,10.69
2019-03-12T15:02:50.315Z,10.74
2019-03-12T15:05:20.901Z,10.68
2019-03-12T15:07:51.416Z,10.67
2019-03-12T15:10:21.875Z,10.73
2019-03-12T15:12:52.336Z,10.60
2019-03-12T15:15:22.840Z,10.67
2019-03-12T15:17:53.567Z,10.65
2019-03-12T15:20:24.142Z,10.71
2019-03-12T15:22:54.985Z,10.68
2019-03-12T15:25:26.010Z,10.66
2019-03-12T15:27:56.498Z,10.73
2019-03-12T15:30:27.458Z,10.60
2019-03-12T15:32:58.206Z,10.68
2019-03-12T15:35:29.459Z,10.68
2019-03-12T15:38:00.379Z,10.67
2019-03-12T15:40:30.885Z,10.68
2019-03-12T15:43:01.587Z,10.70
2019-03-12T15:45:32.082Z,10.63
2019-03-12T15:48:02.777Z,10.60
2019-03-12T15:50:34.685Z,10.59
2019-03-12T15:53:05.634Z,10.73
2019-03-12T15:55:36.100Z,10.66
2019-03-12T15:58:06.556Z,10.70
2019-03-12T16:00:37.180Z,10.69
2019-03-12T16:03:07.703Z,10.72
2019-03-12T16:05:38.437Z,10.69
2019-03-12T16:08:09.046Z,10.75
2019-03-12T16:10:39.788Z,10.77
2019-03-12T16:13:10.577Z,10.72
2019-03-12T16:15:41.148Z,10.75
2019-03-12T16:18:14.459Z,10.76
2019-03-12T16:20:44.250Z,10.76
2019-03-12T16:23:15.356Z,10.69
2019-03-12T16:25:46.185Z,10.67
2019-03-12T16:28:16.647Z,10.67
2019-03-12T16:30:47.156Z,10.65
2019-03-12T16:33:18.657Z,10.68
2019-03-12T16:35:49.264Z,10.63
2019-03-12T16:38:20.087Z,10.68
2019-03-12T16:40:50.615Z,10.68
2019-03-12T16:43:22.277Z,10.67
2019-03-12T16:45:53.025Z,10.69
2019-03-12T16:48:23.512Z,10.65
2019-03-12T16:50:54.098Z,10.66
2019-03-12T16:53:24.725Z,10.60
2019-03-12T16:55:55.718Z,10.65
2019-03-12T16:58:26.279Z,10.62
2019-03-12T17:00:56.741Z,10.66
2019-03-12T17:03:27.316Z,10.65
2019-03-12T17:05:57.812Z,10.59
2019-03-12T17:08:28.551Z,10.60
2019-03-12T17:11:02.769Z,10.58
2019-03-12T17:13:32.100Z,10.62
2019-03-12T17:16:03.023Z,10.64
2019-03-12T17:18:34.171Z,10.69
2019-03-12T17:21:04.733Z,10.61
2019-03-12T17:23:35.677Z,10.60
2019-03-12T17:26:06.186Z,10.53
2019-03-12T17:28:37.186Z,10.59
2019-03-12T17:31:07.714Z,10.49
2019-03-12T17:33:38.337Z,10.55
2019-03-12T17:36:09.228Z,10.56
2019-03-12T17:38:46.740Z,10.52
2019-03-12T17:41:12.071Z,10.51
2019-03-12T17:43:42.958Z,10.53
2019-03-12T17:46:13.804Z,10.49
2019-03-12T17:48:44.354Z,10.48
2019-03-12T17:51:14.928Z,10.54
2019-03-12T17:53:45.486Z,10.48
2019-03-12T17:56:15.948Z,10.44
2019-03-12T17:58:46.555Z,10.51
2019-03-12T18:01:17.027Z,10.48
2019-03-12T18:03:47.499Z,10.46
2019-03-12T18:06:18.043Z,10.45
2019-03-12T18:08:48.614Z,10.48
2019-03-12T18:11:19.205Z,10.49
2019-03-12T18:13:49.840Z,10.46
2019-03-12T18:16:20.393Z,10.58
2019-03-12T18:18:50.868Z,10.47
2019-03-12T18:21:21.690Z,10.50
2019-03-12T18:23:52.259Z,10.49
2019-03-12T18:26:22.741Z,10.50
2019-03-12T18:28:53.630Z,10.53
2019-03-12T18:31:24.039Z,10.54
2019-03-12T18:33:54.635Z,10.53
2019-03-12T18:36:25.523Z,10.53
2019-03-12T18:38:56.082Z,10.58
2019-03-12T18:41:26.538Z,10.60
2019-03-12T18:43:57.296Z,10.64
2019-03-12T18:46:27.817Z,10.61
2019-03-12T18:48:58.350Z,10.56
2019-03-12T18:51:28.895Z,10.59
2019-03-12T18:53:59.431Z,10.58
2019-03-12T18:56:30.056Z,10.60
2019-03-12T18:59:00.866Z,10.57
2019-03-12T19:01:31.341Z,10.59
2019-03-12T19:04:02.057Z,10.56
2019-03-12T19:06:33.448Z,10.61
2019-03-12T19:09:05.583Z,10.62
2019-03-12T19:11:37.555Z,10.58
2019-03-12T19:14:08.351Z,10.63
2019-03-12T19:16:38.946Z,10.63
2019-03-12T19:19:09.536Z,10.47
2019-03-12T19:21:40.027Z,10.35
2019-03-12T19:24:10.747Z,10.23
2019-03-12T19:26:41.343Z,10.14
2019-03-12T19:29:12.123Z,10.11
2019-03-12T19:32:01.281Z,9.98
2019-03-12T19:34:33.786Z,9.92
2019-03-12T19:37:04.769Z,9.86
2019-03-12T19:39:35.996Z,9.82
2019-03-12T19:42:06.483Z,9.77
2019-03-12T19:44:37.157Z,9.80
2019-03-12T19:47:07.965Z,9.67
2019-03-12T19:49:38.468Z,9.63
2019-03-12T19:52:08.992Z,9.62
2019-03-12T19:54:39.827Z,9.55
2019-03-12T19:57:11.589Z,9.50
2019-03-12T19:59:42.576Z,9.62
2019-03-12T20:02:16.430Z,9.58
2019-03-12T20:04:47.668Z,9.50
2019-03-12T20:07:18.585Z,9.53
2019-03-12T20:10:50.182Z,9.41
2019-03-12T20:14:34.452Z,9.44
2019-03-12T20:18:08.253Z,9.27
2019-03-12T20:21:28.385Z,9.34
2019-03-12T20:25:18.893Z,9.49
2019-03-12T20:28:57.350Z,9.54
2019-03-12T20:32:11.031Z,9.74
2019-03-12T20:36:07.390Z,9.76
2019-03-12T20:40:08.337Z,9.83
2019-03-12T20:43:32.165Z,9.88
2019-03-12T20:47:14.051Z,9.95
2019-03-12T20:50:37.900Z,10.03
2019-03-12T20:54:13.323Z,10.11
2019-03-12T20:57:32.354Z,10.17
2019-03-12T21:01:28.040Z,10.12
2019-03-12T21:05:01.925Z,10.04
2019-03-12T21:08:37.642Z,9.90
2019-03-12T21:12:19.166Z,9.62
2019-03-12T21:15:52.599Z,8.42
2019-03-12T21:19:41.673Z,7.68
2019-03-12T21:23:23.832Z,7.08
2019-03-12T21:26:34.048Z,6.83
2019-03-12T21:29:48.322Z,6.62
2019-03-12T21:32:20.265Z,6.45
2019-03-12T21:34:51.305Z,6.35
2019-03-12T21:37:22.694Z,6.20
2019-03-12T21:39:56.188Z,6.10
2019-03-12T21:42:25.928Z,6.00
2019-03-12T21:44:56.676Z,5.96
2019-03-12T21:47:29.578Z,5.96
2019-03-12T21:50:00.549Z,5.91
2019-03-12T21:52:31.844Z,5.89
2019-03-12T21:55:02.615Z,5.91
2019-03-12T21:57:33.434Z,5.86
2019-03-12T22:00:04.161Z,5.85
2019-03-12T22:02:34.593Z,5.80
2019-03-12T22:05:05.224Z,5.85
2019-03-12T22:07:36.025Z,5.83
2019-03-12T22:10:07.723Z,5.83
2019-03-12T22:12:38.266Z,5.84
2019-03-12T22:15:09.695Z,5.81
2019-03-12T22:17:40.499Z,5.84
2019-03-12T22:20:11.675Z,5.83
2019-03-12T22:22:46.722Z,5.88
2019-03-12T22:25:17.481Z,5.89
2019-03-12T22:27:47.988Z,5.90
2019-03-12T22:30:21.218Z,5.87
2019-03-12T22:32:51.815Z,5.83
2019-03-12T22:35:22.335Z,5.82
2019-03-12T22:37:53.181Z,5.84
2019-03-12T22:40:24.026Z,5.80
2019-03-12T22:42:54.945Z,5.84
2019-03-12T22:45:28.723Z,5.86
2019-03-12T22:47:59.933Z,5.94
2019-03-12T22:50:30.694Z,5.93
2019-03-12T22:53:01.829Z,5.93
2019-03-12T22:55:32.700Z,5.95
2019-03-12T22:58:04.576Z,5.98
2019-03-12T23:00:40.299Z,6.00
2019-03-12T23:03:11.325Z,6.03
2019-03-12T23:05:42.108Z,6.02
2019-03-12T23:08:13.089Z,6.06
2019-03-12T23:10:43.754Z,6.07
2019-03-12T23:13:14.265Z,6.08
2019-03-12T23:15:44.914Z,6.06
2019-03-12T23:18:15.567Z,6.09
2019-03-12T23:20:46.188Z,6.11
2019-03-12T23:23:16.840Z,6.07
2019-03-12T23:25:48.430Z,6.06
2019-03-12T23:28:19.027Z,6.08
2019-03-12T23:30:49.819Z,6.09
2019-03-12T23:33:20.706Z,6.05
2019-03-12T23:35:51.424Z,6.10
2019-03-12T23:38:25.037Z,6.10
2019-03-12T23:40:55.946Z,6.12
2019-03-12T23:43:26.444Z,6.09
2019-03-12T23:45:57.063Z,6.03
2019-03-12T23:48:27.540Z,6.06
2019-03-12T23:50:58.015Z,6.01
2019-03-12T23:53:28.538Z,6.02
2019-03-12T23:55:59.075Z,6.04
2019-03-12T23:58:34.859Z,6.06
